createdAt,value
2018-08-17T00:00:22.847Z,5.27
2018-08-17T00:02:51.239Z,6.13
2018-08-17T00:05:19.819Z,5.60
2018-08-17T00:07:48.281Z,5.90
2018-08-17T00:10:22.095Z,5.30
2018-08-17T00:12:50.697Z,5.67
2018-08-17T00:15:19.216Z,5.83
2018-08-17T00:17:47.641Z,5.73
2018-08-17T00:20:16.193Z,6.20
2018-08-17T00:22:44.719Z,6.03
2018-08-17T00:25:13.090Z,5.40
2018-08-17T00:27:41.484Z,7.10
2018-08-17T00:30:10.253Z,5.93
2018-08-17T00:32:38.618Z,6.13
2018-08-17T00:35:07.037Z,6.20
2018-08-17T00:37:35.508Z,6.77
2018-08-17T00:40:03.941Z,5.93
2018-08-17T00:42:32.330Z,5.00
2018-08-17T00:45:00.758Z,11.27
2018-08-17T00:47:29.162Z,5.50
2018-08-17T00:49:57.519Z,5.60
2018-08-17T00:52:25.946Z,5.50
2018-08-17T00:54:54.371Z,5.40
2018-08-17T00:57:22.771Z,5.20
2018-08-17T00:59:51.180Z,6.60
2018-08-17T01:02:19.575Z,6.03
2018-08-17T01:04:47.974Z,5.13
2018-08-17T01:07:16.384Z,6.37
2018-08-17T01:09:44.764Z,5.13
2018-08-17T01:12:13.178Z,5.97
2018-08-17T01:14:41.611Z,5.40
2018-08-17T01:17:10.023Z,5.80
2018-08-17T01:19:38.454Z,6.07
2018-08-17T01:22:06.837Z,6.20
2018-08-17T01:24:35.257Z,5.20
2018-08-17T01:27:03.646Z,5.00
2018-08-17T01:29:32.375Z,4.97
2018-08-17T01:32:00.693Z,6.03
2018-08-17T01:34:29.118Z,5.67
2018-08-17T01:36:57.676Z,4.67
2018-08-17T01:39:26.074Z,5.37
2018-08-17T01:41:54.416Z,5.33
2018-08-17T01:44:22.841Z,6.27
2018-08-17T01:46:51.211Z,5.63
2018-08-17T01:49:19.629Z,6.30
2018-08-17T01:51:47.999Z,5.90
2018-08-17T01:54:16.353Z,5.37
2018-08-17T01:56:44.821Z,5.40
2018-08-17T01:59:13.371Z,5.40
2018-08-17T02:01:41.758Z,5.60
2018-08-17T02:04:10.190Z,5.00
2018-08-17T02:06:38.603Z,5.57
2018-08-17T02:09:08.992Z,6.60
2018-08-17T02:11:37.401Z,5.47
2018-08-17T02:14:05.776Z,6.30
2018-08-17T02:16:34.366Z,5.70
2018-08-17T02:19:02.781Z,6.27
2018-08-17T02:21:31.146Z,6.17
2018-08-17T02:23:59.738Z,6.30
2018-08-17T02:26:28.210Z,6.20
2018-08-17T02:28:56.683Z,6.40
2018-08-17T02:31:25.068Z,5.40
2018-08-17T02:33:53.735Z,6.07
2018-08-17T02:36:22.114Z,5.90
2018-08-17T02:38:50.654Z,7.43
2018-08-17T02:41:19.081Z,5.73
2018-08-17T02:43:47.571Z,5.30
2018-08-17T02:46:16.054Z,6.73
2018-08-17T02:48:44.455Z,6.67
2018-08-17T02:51:12.856Z,6.47
2018-08-17T02:53:41.308Z,5.73
2018-08-17T02:56:09.734Z,5.87
2018-08-17T02:58:38.156Z,7.80
2018-08-17T03:01:06.543Z,7.10
2018-08-17T03:03:34.967Z,6.00
2018-08-17T03:06:04.668Z,6.73
2018-08-17T03:08:33.040Z,6.57
2018-08-17T03:11:01.444Z,6.00
2018-08-17T03:13:29.774Z,7.10
2018-08-17T03:15:58.154Z,6.70
2018-08-17T03:18:26.559Z,5.40
2018-08-17T03:20:54.983Z,5.97
2018-08-17T03:23:23.418Z,11.93
2018-08-17T03:25:51.805Z,7.27
2018-08-17T03:28:20.273Z,7.20
2018-08-17T03:30:48.671Z,6.80
2018-08-17T03:33:17.138Z,6.47
2018-08-17T03:35:45.529Z,6.60
2018-08-17T03:38:14.008Z,8.77
2018-08-17T03:40:42.516Z,6.60
2018-08-17T03:43:10.887Z,8.13
2018-08-17T03:45:39.353Z,7.00
2018-08-17T03:48:08.218Z,6.70
2018-08-17T03:50:36.714Z,7.63
2018-08-17T03:53:05.190Z,7.47
2018-08-17T03:55:33.675Z,7.33
2018-08-17T03:58:02.085Z,7.53
2018-08-17T04:00:30.487Z,7.23
2018-08-17T04:02:58.881Z,8.23
2018-08-17T04:05:27.277Z,9.60
2018-08-17T04:07:55.636Z,6.77
2018-08-17T04:10:24.039Z,7.40
2018-08-17T04:12:52.390Z,7.30
2018-08-17T04:15:20.802Z,8.53
2018-08-17T04:17:49.212Z,7.70
2018-08-17T04:20:17.606Z,8.27
2018-08-17T04:22:45.977Z,9.37
2018-08-17T04:25:14.371Z,7.80
2018-08-17T04:27:42.898Z,7.60
2018-08-17T04:30:11.298Z,8.27
2018-08-17T04:32:39.691Z,7.47
2018-08-17T04:35:08.083Z,8.53
2018-08-17T04:37:36.498Z,8.53
2018-08-17T04:40:04.937Z,9.20
2018-08-17T04:42:33.325Z,8.97
2018-08-17T04:45:01.740Z,8.57
2018-08-17T04:47:30.114Z,9.10
2018-08-17T04:49:58.494Z,7.87
2018-08-17T04:52:26.845Z,8.87
2018-08-17T04:54:55.312Z,7.73
2018-08-17T04:57:23.701Z,9.13
2018-08-17T04:59:52.154Z,8.83
2018-08-17T05:02:20.550Z,9.30
2018-08-17T05:04:48.917Z,8.87
2018-08-17T05:07:17.374Z,8.60
2018-08-17T05:09:45.768Z,8.67
2018-08-17T05:12:14.129Z,8.40
2018-08-17T05:14:42.553Z,10.87
2018-08-17T05:17:10.968Z,9.97
2018-08-17T05:19:39.396Z,9.40
2018-08-17T05:22:07.802Z,9.10
2018-08-17T05:24:36.200Z,9.30
2018-08-17T05:27:04.631Z,11.10
2018-08-17T05:29:33.144Z,9.03
2018-08-17T05:32:01.567Z,10.10
2018-08-17T05:34:29.971Z,15.17
2018-08-17T05:36:58.375Z,12.03
2018-08-17T05:39:26.749Z,10.23
2018-08-17T05:41:55.266Z,9.37
2018-08-17T05:44:23.741Z,10.00
2018-08-17T05:46:52.139Z,8.43
2018-08-17T05:49:20.656Z,9.57
2018-08-17T05:51:49.017Z,9.17
2018-08-17T05:54:17.510Z,11.40
2018-08-17T05:56:46.199Z,9.37
2018-08-17T05:59:14.547Z,9.53
2018-08-17T06:01:43.195Z,10.13
2018-08-17T06:04:11.590Z,9.63
2018-08-17T06:06:40.053Z,11.47
2018-08-17T06:09:09.464Z,10.50
2018-08-17T06:11:38.401Z,10.30
2018-08-17T06:14:07.066Z,11.40
2018-08-17T06:16:35.486Z,10.23
2018-08-17T06:19:03.847Z,10.20
2018-08-17T06:21:32.234Z,10.50
2018-08-17T06:24:00.678Z,10.90
2018-08-17T06:26:29.065Z,10.73
2018-08-17T06:28:57.438Z,11.33
2018-08-17T06:31:25.829Z,11.43
2018-08-17T06:33:54.227Z,13.00
2018-08-17T06:36:22.610Z,10.30
2018-08-17T06:38:51.058Z,12.43
2018-08-17T06:41:19.415Z,11.27
2018-08-17T06:43:47.754Z,10.50
2018-08-17T06:46:16.150Z,14.20
2018-08-17T06:48:44.468Z,10.40
2018-08-17T06:51:12.821Z,10.03
2018-08-17T06:53:41.114Z,10.53
2018-08-17T06:56:09.478Z,9.97
2018-08-17T06:58:37.829Z,9.50
2018-08-17T07:01:06.310Z,9.90
2018-08-17T07:03:34.665Z,10.47
2018-08-17T07:06:03.131Z,11.80
2018-08-17T07:08:31.521Z,10.67
2018-08-17T07:10:59.838Z,10.00
2018-08-17T07:13:28.207Z,10.17
2018-08-17T07:15:56.591Z,10.40
2018-08-17T07:18:24.978Z,8.70
2018-08-17T07:20:53.442Z,10.07
2018-08-17T07:23:21.847Z,14.03
2018-08-17T07:25:50.210Z,9.83
2018-08-17T07:28:18.641Z,10.03
2018-08-17T07:30:47.054Z,9.13
2018-08-17T07:33:15.502Z,11.73
2018-08-17T07:35:43.881Z,9.80
2018-08-17T07:38:12.207Z,9.70
2018-08-17T07:40:40.518Z,10.27
2018-08-17T07:43:08.832Z,9.83
2018-08-17T07:45:37.518Z,9.53
2018-08-17T07:48:05.992Z,9.57
2018-08-17T07:50:34.263Z,9.90
2018-08-17T07:53:02.625Z,9.03
2018-08-17T07:55:31.000Z,9.37
2018-08-17T07:57:59.350Z,9.00
2018-08-17T08:00:27.790Z,9.87
2018-08-17T08:02:56.089Z,9.83
2018-08-17T08:05:24.446Z,10.17
2018-08-17T08:07:52.876Z,9.77
2018-08-17T08:10:21.220Z,9.77
2018-08-17T08:12:49.599Z,9.73
2018-08-17T08:15:17.945Z,10.90
2018-08-17T08:17:46.322Z,9.80
2018-08-17T08:20:27.939Z,9.63
2018-08-17T08:23:07.558Z,11.53
2018-08-17T08:25:35.967Z,11.70
2018-08-17T08:28:04.362Z,10.57
2018-08-17T08:30:32.839Z,10.27
2018-08-17T08:33:01.223Z,10.40
2018-08-17T08:35:29.610Z,9.67
2018-08-17T08:37:58.081Z,10.33
2018-08-17T08:40:26.453Z,10.57
2018-08-17T08:42:55.112Z,9.87
2018-08-17T08:45:23.619Z,10.10
2018-08-17T08:47:52.304Z,9.00
2018-08-17T08:50:20.830Z,10.90
2018-08-17T08:52:49.309Z,9.77
2018-08-17T08:55:17.958Z,10.97
2018-08-17T08:57:46.343Z,10.90
2018-08-17T09:00:14.803Z,11.23
2018-08-17T09:02:43.169Z,11.60
2018-08-17T09:05:11.537Z,15.17
2018-08-17T09:07:39.943Z,11.03
2018-08-17T09:10:09.583Z,14.93
2018-08-17T09:12:37.997Z,11.13
2018-08-17T09:15:07.850Z,12.00
2018-08-17T09:17:36.253Z,10.93
2018-08-17T09:20:05.559Z,10.43
2018-08-17T09:22:34.403Z,10.00
2018-08-17T09:25:02.791Z,11.20
2018-08-17T09:27:31.240Z,10.20
2018-08-17T09:29:59.646Z,9.93
2018-08-17T09:32:28.166Z,11.03
2018-08-17T09:34:56.978Z,10.73
2018-08-17T09:37:25.419Z,13.60
2018-08-17T09:39:53.749Z,11.33
2018-08-17T09:42:22.112Z,16.40
2018-08-17T09:44:50.474Z,9.80
2018-08-17T09:47:18.867Z,10.40
2018-08-17T09:49:47.190Z,9.63
2018-08-17T09:52:15.542Z,9.83
2018-08-17T09:54:43.931Z,9.70
2018-08-17T09:57:12.310Z,11.40
2018-08-17T09:59:40.647Z,11.37
2018-08-17T10:04:22.640Z,9.70
2018-08-17T10:06:56.155Z,10.40
2018-08-17T10:09:29.831Z,16.27
2018-08-17T10:11:58.198Z,11.37
2018-08-17T10:14:26.600Z,11.70
2018-08-17T10:16:54.945Z,12.20
2018-08-17T10:19:23.322Z,10.87
2018-08-17T10:21:52.851Z,11.50
2018-08-17T10:24:21.275Z,22.03
2018-08-17T10:26:50.817Z,11.53
2018-08-17T10:29:19.978Z,13.43
2018-08-17T10:31:49.043Z,10.53
2018-08-17T10:34:17.882Z,10.40
2018-08-17T10:36:46.647Z,10.70
2018-08-17T10:39:15.538Z,11.10
2018-08-17T10:41:43.959Z,10.97
2018-08-17T10:44:12.643Z,11.17
2018-08-17T10:46:41.584Z,11.00
2018-08-17T10:49:10.748Z,12.10
2018-08-17T10:51:39.190Z,42.00
2018-08-17T10:54:07.594Z,20.77
2018-08-17T10:56:35.941Z,12.80
2018-08-17T10:59:04.498Z,11.50
2018-08-17T11:01:32.965Z,11.43
2018-08-17T11:04:01.361Z,11.57
2018-08-17T11:06:29.740Z,10.63
2018-08-17T11:08:58.102Z,9.90
2018-08-17T11:11:26.449Z,11.00
2018-08-17T11:13:54.801Z,10.93
2018-08-17T11:16:23.165Z,10.93
2018-08-17T11:18:51.518Z,10.27
2018-08-17T11:21:19.911Z,11.27
2018-08-17T11:23:48.254Z,10.43
2018-08-17T11:26:16.631Z,11.53
2018-08-17T11:28:44.997Z,10.70
2018-08-17T11:31:13.352Z,12.03
2018-08-17T11:33:41.715Z,10.97
2018-08-17T11:36:10.089Z,10.70
2018-08-17T11:38:38.390Z,10.97
2018-08-17T11:41:09.916Z,10.80
2018-08-17T11:43:38.252Z,14.07
2018-08-17T11:46:07.321Z,11.87
2018-08-17T11:48:36.893Z,11.07
2018-08-17T11:51:05.262Z,10.90
2018-08-17T11:53:33.637Z,10.57
2018-08-17T11:56:02.029Z,11.70
2018-08-17T11:58:30.392Z,10.90
2018-08-17T12:00:58.864Z,10.57
2018-08-17T12:03:27.189Z,9.30
2018-08-17T12:05:55.586Z,10.23
2018-08-17T12:08:24.089Z,10.03
2018-08-17T12:10:57.331Z,10.17
2018-08-17T12:13:26.256Z,10.27
2018-08-17T12:15:56.139Z,10.30
2018-08-17T12:18:24.699Z,9.70
2018-08-17T12:20:53.434Z,10.67
2018-08-17T12:23:21.873Z,10.33
2018-08-17T12:25:54.495Z,9.97
2018-08-17T12:28:23.427Z,9.97
2018-08-17T12:30:51.813Z,9.07
2018-08-17T12:33:20.190Z,11.60
2018-08-17T12:35:48.620Z,11.73
2018-08-17T12:38:17.838Z,9.60
2018-08-17T12:40:56.519Z,9.00
2018-08-17T12:43:30.313Z,14.20
2018-08-17T12:45:58.652Z,9.67
2018-08-17T12:48:27.029Z,9.93
2018-08-17T12:50:59.836Z,10.73
2018-08-17T12:53:28.237Z,9.20
2018-08-17T12:55:56.555Z,9.70
2018-08-17T12:58:24.924Z,9.40
2018-08-17T13:00:53.263Z,9.27
2018-08-17T13:03:21.604Z,9.30
2018-08-17T13:05:49.986Z,9.67
2018-08-17T13:08:18.478Z,9.00
2018-08-17T13:10:47.135Z,10.20
2018-08-17T13:13:15.572Z,9.43
2018-08-17T13:15:49.556Z,9.50
2018-08-17T13:18:21.832Z,9.10
2018-08-17T13:20:50.495Z,9.03
2018-08-17T13:23:18.892Z,10.80
2018-08-17T13:25:47.271Z,10.13
2018-08-17T13:28:15.595Z,9.80
2018-08-17T13:30:43.948Z,10.87
2018-08-17T13:33:12.310Z,11.77
2018-08-17T13:35:40.743Z,9.67
2018-08-17T13:38:09.227Z,8.90
2018-08-17T13:40:37.567Z,9.27
2018-08-17T13:43:05.982Z,9.07
2018-08-17T13:45:34.356Z,8.50
2018-08-17T13:48:02.714Z,9.50
2018-08-17T13:50:31.203Z,10.67
2018-08-17T13:53:03.742Z,9.10
2018-08-17T13:55:32.189Z,9.83
2018-08-17T13:58:00.473Z,9.20
2018-08-17T14:00:28.918Z,9.57
2018-08-17T14:02:57.295Z,8.97
2018-08-17T14:05:25.674Z,11.33
2018-08-17T14:07:54.039Z,9.10
2018-08-17T14:10:22.411Z,8.93
2018-08-17T14:12:50.864Z,9.67
2018-08-17T14:15:19.492Z,9.37
2018-08-17T14:17:47.821Z,10.10
2018-08-17T14:20:16.574Z,9.43
2018-08-17T14:22:44.954Z,10.27
2018-08-17T14:25:13.258Z,8.70
2018-08-17T14:27:41.832Z,9.27
2018-08-17T14:30:15.210Z,9.57
2018-08-17T14:32:44.001Z,9.53
2018-08-17T14:35:12.482Z,8.80
2018-08-17T14:37:40.898Z,8.70
2018-08-17T14:40:10.503Z,9.37
2018-08-17T14:42:38.958Z,8.57
2018-08-17T14:45:08.302Z,8.60
2018-08-17T14:47:37.083Z,12.50
2018-08-17T14:50:08.442Z,13.00
2018-08-17T14:52:36.913Z,8.17
2018-08-17T14:55:05.701Z,9.20
2018-08-17T14:57:34.198Z,9.57
2018-08-17T15:00:02.636Z,8.90
2018-08-17T15:02:31.003Z,7.83
2018-08-17T15:04:59.388Z,8.07
2018-08-17T15:07:27.724Z,8.73
2018-08-17T15:09:56.138Z,8.40
2018-08-17T15:12:24.479Z,7.80
2018-08-17T15:14:52.848Z,9.00
2018-08-17T15:17:21.225Z,8.77
2018-08-17T15:19:49.641Z,8.47
2018-08-17T15:22:18.097Z,9.13
2018-08-17T15:24:46.449Z,8.80
2018-08-17T15:27:14.849Z,8.50
2018-08-17T15:29:43.213Z,9.07
2018-08-17T15:32:11.634Z,8.17
2018-08-17T15:34:39.955Z,10.13
2018-08-17T15:37:08.437Z,8.23
2018-08-17T15:39:36.827Z,9.30
2018-08-17T15:42:05.314Z,8.80
2018-08-17T15:44:34.329Z,8.70
2018-08-17T15:47:02.686Z,8.63
2018-08-17T15:49:32.989Z,9.73
2018-08-17T15:52:02.657Z,9.23
2018-08-17T15:54:31.083Z,8.07
2018-08-17T15:56:59.514Z,8.43
2018-08-17T15:59:27.962Z,8.13
2018-08-17T16:01:56.442Z,7.80
2018-08-17T16:04:25.004Z,7.40
2018-08-17T16:06:53.478Z,7.23
2018-08-17T16:09:21.805Z,8.20
2018-08-17T16:11:50.200Z,8.20
2018-08-17T16:14:18.558Z,7.10
2018-08-17T16:16:46.962Z,6.80
2018-08-17T16:19:15.288Z,7.87
2018-08-17T16:21:43.706Z,8.40
2018-08-17T16:24:12.151Z,7.63
2018-08-17T16:26:40.542Z,7.23
2018-08-17T16:29:08.943Z,7.13
2018-08-17T16:31:39.922Z,6.60
2018-08-17T16:34:10.141Z,6.03
2018-08-17T16:36:42.999Z,8.73
2018-08-17T16:39:15.194Z,7.80
2018-08-17T16:41:43.906Z,6.70
2018-08-17T16:44:12.907Z,7.23
2018-08-17T16:46:42.347Z,7.40
2018-08-17T16:49:10.851Z,6.30
2018-08-17T16:51:39.571Z,7.53
2018-08-17T16:54:08.051Z,7.70
2018-08-17T16:56:36.960Z,6.93
2018-08-17T16:59:05.815Z,7.57
2018-08-17T17:01:34.210Z,8.50
2018-08-17T17:04:02.740Z,8.17
2018-08-17T17:06:31.257Z,7.90
2018-08-17T17:09:02.704Z,8.27
2018-08-17T17:11:31.197Z,8.90
2018-08-17T17:13:59.667Z,8.50
2018-08-17T17:16:37.088Z,12.03
2018-08-17T17:19:09.222Z,8.57
2018-08-17T17:21:40.475Z,9.97
2018-08-17T17:24:09.054Z,9.67
2018-08-17T17:26:37.589Z,9.70
2018-08-17T17:29:07.153Z,10.70
2018-08-17T17:31:36.150Z,11.87
2018-08-17T17:34:04.881Z,58.53
2018-08-17T17:36:33.379Z,19.40
2018-08-17T17:39:01.966Z,12.57
2018-08-17T17:41:30.523Z,22.00
2018-08-17T17:43:59.102Z,18.37
2018-08-17T17:46:27.629Z,11.73
2018-08-17T17:48:56.130Z,11.27
2018-08-17T17:51:24.609Z,10.90
2018-08-17T17:53:53.387Z,9.93
2018-08-17T17:56:22.127Z,10.37
2018-08-17T17:58:52.026Z,11.10
2018-08-17T18:01:20.728Z,11.97
2018-08-17T18:03:49.378Z,10.77
2018-08-17T18:06:17.901Z,10.60
2018-08-17T18:08:46.245Z,11.17
2018-08-17T18:11:14.644Z,10.87
2018-08-17T18:13:43.010Z,10.13
2018-08-17T18:16:11.381Z,10.07
2018-08-17T18:18:39.804Z,11.47
2018-08-17T18:21:08.429Z,10.27
2018-08-17T18:23:36.797Z,11.33
2018-08-17T18:26:11.442Z,10.70
2018-08-17T18:28:39.843Z,11.00
2018-08-17T18:31:08.267Z,10.50
2018-08-17T18:33:36.709Z,10.80
2018-08-17T18:36:05.117Z,10.43
2018-08-17T18:38:33.502Z,13.67
2018-08-17T18:41:02.054Z,10.17
2018-08-17T18:43:30.734Z,12.43
2018-08-17T18:45:59.117Z,10.17
2018-08-17T18:48:31.855Z,11.73
2018-08-17T18:51:00.250Z,11.97
2018-08-17T18:53:28.620Z,10.53
2018-08-17T18:55:57.082Z,11.30
2018-08-17T18:58:25.465Z,10.90
2018-08-17T19:00:53.931Z,12.03
2018-08-17T19:03:22.379Z,10.90
2018-08-17T19:05:50.742Z,11.80
2018-08-17T19:08:19.087Z,12.20
2018-08-17T19:10:47.454Z,10.87
2018-08-17T19:13:15.835Z,11.30
2018-08-17T19:15:50.280Z,11.97
2018-08-17T19:18:18.779Z,12.20
2018-08-17T19:20:47.246Z,12.10
2018-08-17T19:23:15.651Z,13.30
2018-08-17T19:25:44.160Z,17.10
2018-08-17T19:28:12.542Z,12.50
2018-08-17T19:30:41.886Z,12.97
2018-08-17T19:33:11.893Z,13.77
2018-08-17T19:35:47.622Z,13.80
2018-08-17T19:38:16.030Z,16.57
2018-08-17T19:40:44.422Z,14.20
2018-08-17T19:43:12.842Z,13.40
2018-08-17T19:45:41.255Z,14.17
2018-08-17T19:48:09.829Z,15.60
2018-08-17T19:50:38.326Z,15.67
2018-08-17T19:53:06.797Z,14.63
2018-08-17T19:55:35.250Z,14.20
2018-08-17T19:58:03.697Z,14.90
2018-08-17T20:00:32.152Z,15.00
2018-08-17T20:03:00.718Z,15.20
2018-08-17T20:05:29.115Z,16.60
2018-08-17T20:07:57.530Z,15.57
2018-08-17T20:10:26.125Z,16.40
2018-08-17T20:12:54.527Z,15.60
2018-08-17T20:15:22.952Z,16.30
2018-08-17T20:17:52.168Z,16.13
2018-08-17T20:20:20.606Z,15.73
2018-08-17T20:22:48.943Z,16.10
2018-08-17T20:25:18.087Z,17.33
2018-08-17T20:27:47.114Z,15.47
2018-08-17T20:30:20.705Z,15.77
2018-08-17T20:32:49.187Z,16.30
2018-08-17T20:35:17.615Z,15.00
2018-08-17T20:37:48.408Z,15.90
2018-08-17T20:40:17.146Z,16.53
2018-08-17T20:42:45.794Z,15.37
2018-08-17T20:45:14.229Z,15.67
2018-08-17T20:47:43.022Z,17.23
2018-08-17T20:50:13.573Z,14.70
2018-08-17T20:52:51.350Z,19.40
2018-08-17T20:55:20.428Z,16.37
2018-08-17T20:57:51.146Z,14.60
2018-08-17T21:00:19.749Z,15.40
2018-08-17T21:02:48.122Z,16.73
2018-08-17T21:05:16.778Z,16.03
2018-08-17T21:07:45.994Z,16.03
2018-08-17T21:10:14.470Z,16.13
2018-08-17T21:12:43.039Z,17.90
2018-08-17T21:15:11.408Z,16.80
2018-08-17T21:17:39.843Z,17.20
2018-08-17T21:20:08.233Z,17.73
2018-08-17T21:22:36.690Z,17.23
2018-08-17T21:25:05.645Z,18.47
2018-08-17T21:27:34.358Z,17.50
2018-08-17T21:30:03.219Z,17.70
2018-08-17T21:32:31.700Z,18.47
2018-08-17T21:35:00.211Z,17.03
2018-08-17T21:37:28.779Z,17.80
2018-08-17T21:39:57.250Z,16.63
2018-08-17T21:42:25.672Z,17.03
2018-08-17T21:44:54.110Z,17.50
2018-08-17T21:47:22.485Z,16.50
2018-08-17T21:49:53.867Z,17.90
2018-08-17T21:52:23.163Z,17.77
2018-08-17T21:54:51.534Z,16.23
2018-08-17T21:57:19.891Z,17.80
2018-08-17T21:59:50.054Z,18.50
2018-08-17T22:02:19.270Z,18.53
2018-08-17T22:04:47.533Z,18.50
2018-08-17T22:07:19.543Z,17.57
2018-08-17T22:09:47.923Z,18.10
2018-08-17T22:12:16.348Z,16.53
2018-08-17T22:14:46.450Z,18.20
2018-08-17T22:17:26.801Z,18.37
2018-08-17T22:19:55.186Z,20.17
2018-08-17T22:22:23.714Z,19.70
2018-08-17T22:24:53.027Z,17.80
2018-08-17T22:27:21.979Z,16.40
2018-08-17T22:29:51.721Z,18.60
2018-08-17T22:32:20.360Z,17.67
2018-08-17T22:34:49.135Z,18.10
2018-08-17T22:37:17.641Z,18.17
2018-08-17T22:39:46.322Z,17.93
2018-08-17T22:42:17.343Z,18.83
2018-08-17T22:44:46.113Z,20.43
2018-08-17T22:47:20.178Z,17.30
2018-08-17T22:49:49.206Z,17.83
2018-08-17T22:52:17.625Z,18.77
2018-08-17T22:54:51.199Z,18.50
2018-08-17T22:57:19.605Z,19.63
2018-08-17T23:00:21.693Z,19.60
2018-08-17T23:02:51.270Z,18.60
2018-08-17T23:05:21.945Z,18.57
2018-08-17T23:07:50.310Z,18.67
2018-08-17T23:10:19.767Z,19.43
2018-08-17T23:12:49.303Z,18.17
2018-08-17T23:15:17.670Z,17.60
2018-08-17T23:17:54.921Z,19.13
2018-08-17T23:20:28.599Z,21.60
2018-08-17T23:22:58.126Z,18.17
2018-08-17T23:25:26.542Z,18.80
2018-08-17T23:27:55.013Z,19.77
2018-08-17T23:30:23.399Z,18.67
2018-08-17T23:32:51.735Z,17.80
2018-08-17T23:35:20.140Z,19.17
2018-08-17T23:37:48.543Z,19.83
2018-08-17T23:40:16.926Z,18.83
2018-08-17T23:42:45.329Z,19.03
2018-08-17T23:45:15.227Z,19.93
2018-08-17T23:47:43.641Z,19.67
2018-08-17T23:50:13.058Z,19.03
2018-08-17T23:52:41.551Z,19.10
2018-08-17T23:55:12.074Z,19.03
2018-08-17T23:57:40.459Z,17.57
